createdAt,value
2018-05-23T00:00:04.590Z,90.10
2018-05-23T00:02:32.158Z,90.40
2018-05-23T00:04:59.807Z,90.50
2018-05-23T00:07:27.379Z,90.60
2018-05-23T00:09:54.997Z,90.60
2018-05-23T00:12:23.343Z,90.50
2018-05-23T00:14:50.929Z,90.50
2018-05-23T00:17:19.094Z,90.40
2018-05-23T00:19:46.693Z,90.20
2018-05-23T00:22:14.244Z,90.30
2018-05-23T00:24:41.855Z,90.40
2018-05-23T00:27:09.439Z,90.50
2018-05-23T00:29:37.815Z,90.60
2018-05-23T00:32:05.401Z,90.60
2018-05-23T00:34:32.999Z,90.60
2018-05-23T00:37:00.575Z,90.70
2018-05-23T00:39:28.910Z,90.80
2018-05-23T00:41:56.501Z,90.80
2018-05-23T00:44:24.079Z,90.80
2018-05-23T00:46:51.684Z,90.80
2018-05-23T00:49:19.250Z,90.80
2018-05-23T00:51:46.855Z,90.90
2018-05-23T00:54:14.557Z,90.90
2018-05-23T00:56:42.117Z,90.90
2018-05-23T00:59:11.299Z,91.10
2018-05-23T01:01:39.703Z,91.00
2018-05-23T01:04:07.273Z,91.00
2018-05-23T01:06:34.893Z,91.30
2018-05-23T01:09:03.337Z,91.90
2018-05-23T01:11:30.949Z,91.90
2018-05-23T01:13:58.637Z,91.80
2018-05-23T01:16:26.350Z,91.70
2018-05-23T01:18:53.903Z,91.60
2018-05-23T01:21:21.466Z,91.90
2018-05-23T01:23:49.145Z,91.50
2018-05-23T01:26:17.431Z,91.60
2018-05-23T01:28:45.067Z,91.50
2018-05-23T01:31:12.804Z,91.70
2018-05-23T01:33:40.464Z,91.60
2018-05-23T01:36:08.423Z,91.40
2018-05-23T01:38:36.075Z,91.60
2018-05-23T01:41:06.499Z,91.70
2018-05-23T01:43:34.159Z,91.80
2018-05-23T01:46:01.882Z,91.70
2018-05-23T01:48:41.446Z,91.60
2018-05-23T01:51:09.090Z,91.40
2018-05-23T01:53:36.843Z,91.40
2018-05-23T01:56:04.683Z,91.50
2018-05-23T01:58:32.476Z,91.50
2018-05-23T02:00:59.998Z,91.40
2018-05-23T02:03:27.643Z,91.20
2018-05-23T02:05:55.351Z,91.30
2018-05-23T02:08:23.750Z,91.30
2018-05-23T02:10:51.446Z,91.30
2018-05-23T02:13:19.105Z,91.40
2018-05-23T02:15:46.687Z,91.50
2018-05-23T02:18:14.287Z,91.50
2018-05-23T02:20:41.908Z,91.50
2018-05-23T02:23:09.447Z,91.30
2018-05-23T02:25:37.103Z,91.30
2018-05-23T02:28:04.674Z,91.70
2018-05-23T02:30:35.283Z,92.30
2018-05-23T02:33:04.735Z,92.60
2018-05-23T02:35:32.397Z,92.30
2018-05-23T02:38:01.225Z,92.60
2018-05-23T02:40:28.814Z,92.30
2018-05-23T02:42:56.438Z,92.20
2018-05-23T02:45:24.100Z,92.20
2018-05-23T02:47:52.489Z,91.90
2018-05-23T02:50:20.280Z,91.90
2018-05-23T02:52:47.903Z,91.90
2018-05-23T02:55:15.517Z,92.00
2018-05-23T02:57:43.223Z,91.90
2018-05-23T03:00:10.913Z,91.80
2018-05-23T03:02:39.611Z,91.80
2018-05-23T03:05:07.191Z,91.80
2018-05-23T03:07:34.768Z,91.80
2018-05-23T03:10:02.433Z,91.70
2018-05-23T03:12:30.028Z,91.90
2018-05-23T03:14:57.596Z,92.10
2018-05-23T03:17:25.240Z,92.00
2018-05-23T03:19:52.837Z,91.90
2018-05-23T03:22:20.532Z,91.90
2018-05-23T03:24:48.120Z,92.00
2018-05-23T03:27:15.760Z,92.10
2018-05-23T03:29:43.366Z,92.10
2018-05-23T03:32:11.769Z,91.80
2018-05-23T03:34:39.321Z,91.70
2018-05-23T03:37:06.953Z,91.90
2018-05-23T03:39:34.632Z,92.20
2018-05-23T03:42:03.097Z,92.30
2018-05-23T03:44:30.749Z,92.30
2018-05-23T03:46:58.446Z,92.30
2018-05-23T03:49:26.884Z,93.10
2018-05-23T03:51:54.505Z,93.00
2018-05-23T03:54:22.066Z,93.50
2018-05-23T03:56:49.670Z,93.50
2018-05-23T03:59:17.277Z,93.40
2018-05-23T04:01:56.805Z,93.30
2018-05-23T04:04:36.129Z,93.60
2018-05-23T04:10:15.146Z,93.40
2018-05-23T04:12:43.144Z,93.50
2018-05-23T04:15:11.676Z,93.60
2018-05-23T04:17:40.165Z,93.70
2018-05-23T04:20:07.892Z,93.70
2018-05-23T04:22:35.739Z,93.70
2018-05-23T04:25:03.485Z,93.70
2018-05-23T04:27:31.896Z,93.80
2018-05-23T04:29:59.659Z,93.80
2018-05-23T04:32:28.136Z,94.40
2018-05-23T04:34:55.760Z,94.30
2018-05-23T04:37:23.347Z,94.40
2018-05-23T04:39:50.981Z,94.60
2018-05-23T04:42:18.609Z,94.70
2018-05-23T04:44:46.191Z,94.80
2018-05-23T04:47:13.800Z,95.00
2018-05-23T04:49:41.494Z,95.10
2018-05-23T04:52:09.064Z,95.30
2018-05-23T04:54:36.939Z,95.40
2018-05-23T04:57:04.502Z,95.50
2018-05-23T04:59:32.111Z,95.40
2018-05-23T05:01:59.674Z,95.50
2018-05-23T05:04:27.348Z,95.60
2018-05-23T05:06:54.995Z,95.60
2018-05-23T05:09:22.573Z,95.60
2018-05-23T05:11:50.104Z,95.50
2018-05-23T05:14:17.723Z,95.50
2018-05-23T05:16:45.271Z,95.40
2018-05-23T05:19:12.932Z,95.40
2018-05-23T05:21:40.561Z,95.40
2018-05-23T05:24:09.063Z,94.80
2018-05-23T05:26:36.633Z,94.80
2018-05-23T05:29:04.235Z,94.80
2018-05-23T05:31:31.980Z,94.60
2018-05-23T05:33:59.769Z,94.60
2018-05-23T05:36:27.490Z,94.40
2018-05-23T05:38:55.143Z,94.00
2018-05-23T05:41:22.808Z,93.70
2018-05-23T05:43:50.358Z,93.30
2018-05-23T05:46:18.087Z,93.10
2018-05-23T05:48:45.705Z,92.80
2018-05-23T05:51:13.426Z,92.80
2018-05-23T05:53:41.789Z,92.50
2018-05-23T05:56:09.443Z,92.50
2018-05-23T05:58:37.065Z,92.30
2018-05-23T06:01:04.838Z,92.10
2018-05-23T06:03:32.426Z,92.10
2018-05-23T06:05:59.943Z,92.20
2018-05-23T06:08:28.419Z,92.10
2018-05-23T06:10:55.982Z,91.70
2018-05-23T06:13:23.663Z,91.30
2018-05-23T06:15:51.329Z,91.40
2018-05-23T06:18:19.157Z,91.10
2018-05-23T06:20:47.019Z,90.80
2018-05-23T06:23:14.740Z,90.80
2018-05-23T06:25:42.503Z,90.30
2018-05-23T06:28:10.456Z,90.30
2018-05-23T06:30:38.425Z,90.50
2018-05-23T06:33:06.171Z,90.40
2018-05-23T06:35:33.813Z,90.20
2018-05-23T06:38:01.839Z,90.60
2018-05-23T06:40:29.675Z,90.20
2018-05-23T06:42:57.443Z,88.50
2018-05-23T06:45:25.079Z,88.00
2018-05-23T06:47:52.777Z,88.30
2018-05-23T06:50:20.747Z,89.60
2018-05-23T06:52:48.609Z,87.40
2018-05-23T06:55:16.490Z,87.20
2018-05-23T06:57:44.402Z,87.70
2018-05-23T07:00:12.323Z,87.80
2018-05-23T07:02:40.081Z,85.70
2018-05-23T07:05:07.902Z,86.30
2018-05-23T07:07:35.695Z,84.90
2018-05-23T07:10:03.829Z,84.90
2018-05-23T07:12:32.465Z,84.30
2018-05-23T07:15:00.337Z,84.20
2018-05-23T07:17:28.044Z,83.00
2018-05-23T07:19:56.645Z,83.20
2018-05-23T07:22:24.389Z,82.40
2018-05-23T07:24:52.061Z,81.90
2018-05-23T07:27:19.763Z,80.50
2018-05-23T07:29:47.593Z,79.80
2018-05-23T07:32:16.104Z,78.80
2018-05-23T07:34:44.618Z,78.50
2018-05-23T07:37:12.373Z,78.50
2018-05-23T07:39:41.090Z,79.40
2018-05-23T07:42:08.789Z,77.90
2018-05-23T07:44:37.517Z,76.50
2018-05-23T07:47:05.204Z,76.40
2018-05-23T07:49:32.901Z,76.90
2018-05-23T07:52:00.604Z,77.80
2018-05-23T07:54:28.241Z,77.60
2018-05-23T07:56:55.873Z,76.60
2018-05-23T07:59:23.467Z,74.40
2018-05-23T08:01:51.021Z,72.90
2018-05-23T08:04:18.541Z,73.30
2018-05-23T08:06:46.087Z,74.70
2018-05-23T08:09:14.907Z,71.20
2018-05-23T08:11:43.212Z,69.70
2018-05-23T08:14:10.730Z,69.60
2018-05-23T08:16:38.242Z,69.30
2018-05-23T08:19:05.775Z,69.50
2018-05-23T08:21:33.303Z,69.30
2018-05-23T08:24:00.846Z,67.70
2018-05-23T08:26:28.354Z,65.60
2018-05-23T08:28:55.899Z,65.00
2018-05-23T08:31:23.415Z,64.50
2018-05-23T08:33:50.961Z,63.70
2018-05-23T08:36:18.476Z,64.30
2018-05-23T08:38:46.018Z,61.70
2018-05-23T08:41:13.514Z,61.30
2018-05-23T08:43:41.047Z,61.80
2018-05-23T08:46:08.599Z,61.40
2018-05-23T08:48:36.924Z,62.50
2018-05-23T08:51:04.439Z,62.40
2018-05-23T08:53:31.964Z,62.50
2018-05-23T08:55:59.527Z,62.60
2018-05-23T08:58:27.038Z,60.20
2018-05-23T09:00:54.603Z,60.60
2018-05-23T09:03:22.137Z,61.20
2018-05-23T09:05:49.688Z,61.80
2018-05-23T09:08:17.221Z,59.20
2018-05-23T09:10:44.763Z,59.00
2018-05-23T09:13:12.280Z,58.70
2018-05-23T09:15:40.610Z,58.00
2018-05-23T09:18:08.126Z,58.00
2018-05-23T09:20:35.672Z,57.80
2018-05-23T09:23:03.958Z,57.70
2018-05-23T09:25:32.357Z,56.20
2018-05-23T09:27:59.811Z,56.00
2018-05-23T09:30:27.326Z,55.50
2018-05-23T09:32:54.860Z,56.70
2018-05-23T09:35:22.371Z,56.90
2018-05-23T09:37:49.920Z,57.20
2018-05-23T09:40:18.204Z,55.50
2018-05-23T09:42:46.498Z,55.30
2018-05-23T09:45:14.067Z,55.30
2018-05-23T09:47:41.606Z,55.80
2018-05-23T09:50:09.118Z,55.50
2018-05-23T09:52:36.692Z,55.80
2018-05-23T09:55:04.267Z,54.90
2018-05-23T09:57:31.760Z,55.90
2018-05-23T09:59:59.280Z,55.10
2018-05-23T10:02:26.835Z,54.20
2018-05-23T10:04:54.333Z,54.80
2018-05-23T10:07:21.920Z,54.40
2018-05-23T10:09:49.440Z,54.30
2018-05-23T10:12:16.960Z,53.70
2018-05-23T10:14:44.520Z,54.10
2018-05-23T10:17:12.038Z,54.80
2018-05-23T10:19:39.565Z,53.80
2018-05-23T10:22:07.081Z,53.70
2018-05-23T10:24:34.616Z,53.50
2018-05-23T10:27:02.128Z,54.90
2018-05-23T10:29:29.676Z,53.60
2018-05-23T10:31:57.175Z,52.80
2018-05-23T10:34:24.747Z,53.30
2018-05-23T10:36:52.263Z,53.60
2018-05-23T10:39:19.835Z,53.90
2018-05-23T10:41:47.347Z,54.30
2018-05-23T10:44:14.920Z,54.10
2018-05-23T10:46:42.425Z,54.90
2018-05-23T10:49:09.946Z,53.60
2018-05-23T10:51:37.480Z,54.20
2018-05-23T10:54:04.994Z,52.20
2018-05-23T10:56:32.532Z,53.40
2018-05-23T10:59:00.057Z,51.00
2018-05-23T11:01:27.603Z,50.40
2018-05-23T11:03:55.113Z,49.80
2018-05-23T11:06:22.655Z,50.10
2018-05-23T11:08:50.241Z,50.80
2018-05-23T11:11:17.721Z,51.00
2018-05-23T11:13:45.249Z,47.50
2018-05-23T11:16:12.782Z,47.20
2018-05-23T11:18:40.288Z,47.40
2018-05-23T11:21:08.606Z,47.90
2018-05-23T11:23:36.129Z,47.90
2018-05-23T11:26:03.679Z,47.40
2018-05-23T11:28:31.954Z,44.40
2018-05-23T11:31:00.258Z,46.20
2018-05-23T11:33:27.764Z,46.20
2018-05-23T11:35:55.299Z,46.60
2018-05-23T11:38:22.808Z,45.40
2018-05-23T11:40:51.126Z,46.70
2018-05-23T11:43:18.638Z,46.60
2018-05-23T11:45:46.201Z,45.70
2018-05-23T11:48:14.463Z,44.20
2018-05-23T11:50:41.972Z,44.10
2018-05-23T11:53:09.510Z,43.60
2018-05-23T11:55:37.128Z,45.00
2018-05-23T11:58:05.369Z,42.60
2018-05-23T12:00:32.890Z,42.50
2018-05-23T12:03:00.452Z,43.30
2018-05-23T12:05:28.790Z,45.60
2018-05-23T12:07:56.347Z,45.60
2018-05-23T12:10:23.960Z,42.80
2018-05-23T12:12:51.411Z,43.30
2018-05-23T12:15:18.938Z,43.00
2018-05-23T12:17:46.463Z,42.90
2018-05-23T12:20:14.015Z,42.40
2018-05-23T12:22:41.533Z,41.70
2018-05-23T12:25:09.076Z,40.40
2018-05-23T12:27:36.601Z,42.60
2018-05-23T12:30:04.154Z,41.10
2018-05-23T12:32:31.676Z,40.00
2018-05-23T12:34:59.222Z,41.50
2018-05-23T12:37:26.968Z,41.70
2018-05-23T12:39:54.523Z,41.10
2018-05-23T12:42:22.034Z,42.20
2018-05-23T12:44:50.352Z,42.10
2018-05-23T12:47:17.862Z,42.10
2018-05-23T12:49:45.417Z,41.60
2018-05-23T12:52:13.720Z,40.40
2018-05-23T12:54:41.231Z,40.40
2018-05-23T12:57:09.009Z,40.40
2018-05-23T12:59:37.853Z,39.30
2018-05-23T13:02:05.397Z,38.60
2018-05-23T13:04:32.911Z,37.40
2018-05-23T13:07:00.444Z,38.50
2018-05-23T13:09:27.952Z,40.40
2018-05-23T13:11:55.507Z,39.60
2018-05-23T13:14:23.786Z,39.00
2018-05-23T13:16:51.328Z,38.90
2018-05-23T13:19:18.834Z,38.60
2018-05-23T13:21:46.379Z,41.30
2018-05-23T13:24:13.875Z,43.50
2018-05-23T13:26:41.428Z,43.30
2018-05-23T13:29:09.966Z,44.60
2018-05-23T13:31:37.866Z,44.60
2018-05-23T13:34:05.381Z,46.50
2018-05-23T13:36:33.668Z,48.90
2018-05-23T13:39:02.088Z,49.10
2018-05-23T13:41:29.528Z,49.10
2018-05-23T13:43:57.089Z,48.60
2018-05-23T13:46:24.639Z,49.00
2018-05-23T13:48:52.197Z,49.30
2018-05-23T13:51:19.734Z,48.70
2018-05-23T13:53:47.289Z,48.80
2018-05-23T13:56:15.566Z,48.70
2018-05-23T13:58:43.911Z,47.70
2018-05-23T14:01:11.440Z,47.60
2018-05-23T14:03:38.972Z,48.40
2018-05-23T14:06:07.251Z,47.90
2018-05-23T14:08:35.562Z,48.10
2018-05-23T14:11:03.082Z,48.00
2018-05-23T14:13:31.432Z,47.50
2018-05-23T14:15:58.967Z,47.50
2018-05-23T14:18:26.532Z,46.90
2018-05-23T14:20:54.038Z,47.50
2018-05-23T14:23:22.314Z,46.00
2018-05-23T14:25:50.620Z,46.20
2018-05-23T14:28:18.123Z,46.20
2018-05-23T14:30:45.667Z,47.20
2018-05-23T14:33:13.207Z,45.70
2018-05-23T14:35:40.741Z,45.70
2018-05-23T14:38:09.013Z,45.40
2018-05-23T14:40:37.336Z,47.50
2018-05-23T14:43:04.852Z,47.50
2018-05-23T14:45:33.174Z,51.20
2018-05-23T14:48:00.684Z,51.20
2018-05-23T14:50:28.236Z,52.90
2018-05-23T14:52:56.521Z,51.40
2018-05-23T14:55:24.836Z,52.40
2018-05-23T14:57:52.354Z,52.30
2018-05-23T15:00:19.902Z,53.70
2018-05-23T15:02:48.182Z,52.70
2018-05-23T15:05:15.744Z,52.60
2018-05-23T15:07:44.034Z,52.10
2018-05-23T15:10:11.574Z,52.00
2018-05-23T15:12:39.112Z,50.90
2018-05-23T15:15:06.654Z,50.60
2018-05-23T15:17:34.201Z,51.10
2018-05-23T15:20:01.815Z,52.90
2018-05-23T15:22:30.030Z,51.70
2018-05-23T15:24:57.544Z,51.60
2018-05-23T15:27:25.075Z,52.00
2018-05-23T15:29:52.583Z,53.00
2018-05-23T15:32:20.124Z,54.20
2018-05-23T15:34:47.631Z,54.20
2018-05-23T15:37:15.180Z,54.80
2018-05-23T15:39:42.714Z,55.60
2018-05-23T15:42:11.040Z,57.60
2018-05-23T15:44:38.566Z,58.10
2018-05-23T15:47:06.104Z,58.30
2018-05-23T15:49:33.651Z,59.00
2018-05-23T15:52:01.183Z,59.50
2018-05-23T15:54:29.528Z,60.90
2018-05-23T15:56:57.090Z,60.80
2018-05-23T15:59:25.371Z,61.40
2018-05-23T16:01:52.884Z,61.30
2018-05-23T16:04:20.429Z,61.70
2018-05-23T16:06:47.948Z,62.10
2018-05-23T16:09:15.487Z,62.30
2018-05-23T16:11:43.029Z,62.30
2018-05-23T16:14:10.579Z,62.20
2018-05-23T16:16:38.092Z,62.30
2018-05-23T16:19:05.713Z,63.80
2018-05-23T16:21:34.001Z,62.10
2018-05-23T16:24:02.310Z,61.50
2018-05-23T16:26:29.833Z,61.40
2018-05-23T16:28:57.369Z,62.40
2018-05-23T16:31:24.876Z,61.80
2018-05-23T16:33:52.434Z,61.60
2018-05-23T16:36:19.945Z,61.80
2018-05-23T16:38:47.464Z,62.00
2018-05-23T16:41:15.030Z,60.10
2018-05-23T16:43:42.528Z,59.10
2018-05-23T16:46:10.078Z,58.40
2018-05-23T16:48:37.580Z,57.50
2018-05-23T16:51:05.124Z,57.30
2018-05-23T16:53:33.417Z,56.60
2018-05-23T16:56:00.966Z,56.60
2018-05-23T16:58:28.492Z,56.30
2018-05-23T17:00:56.490Z,56.10
2018-05-23T17:03:24.001Z,56.30
2018-05-23T17:05:51.552Z,56.30
2018-05-23T17:08:19.060Z,56.40
2018-05-23T17:10:46.640Z,56.40
2018-05-23T17:13:14.186Z,56.80
2018-05-23T17:15:41.724Z,56.90
2018-05-23T17:18:09.240Z,57.10
2018-05-23T17:20:36.796Z,56.60
2018-05-23T17:23:04.305Z,57.00
2018-05-23T17:25:31.806Z,57.90
2018-05-23T17:27:59.383Z,58.30
2018-05-23T17:30:26.908Z,59.00
2018-05-23T17:32:54.444Z,59.40
2018-05-23T17:35:22.738Z,60.60
2018-05-23T17:37:51.070Z,61.00
2018-05-23T17:40:18.673Z,61.00
2018-05-23T17:42:46.155Z,61.80
2018-05-23T17:45:13.669Z,62.50
2018-05-23T17:47:41.245Z,62.80
2018-05-23T17:50:09.542Z,64.00
2018-05-23T17:52:37.106Z,64.00
2018-05-23T17:55:04.617Z,65.20
2018-05-23T17:57:32.155Z,65.30
2018-05-23T17:59:59.679Z,66.10
2018-05-23T18:02:27.229Z,66.10
2018-05-23T18:04:55.518Z,67.20
2018-05-23T18:07:23.076Z,67.20
2018-05-23T18:09:50.594Z,67.70
2018-05-23T18:12:18.642Z,67.90
2018-05-23T18:14:46.162Z,68.50
2018-05-23T18:17:13.687Z,68.90
2018-05-23T18:19:41.222Z,69.70
2018-05-23T18:22:08.728Z,70.30
2018-05-23T18:24:37.558Z,70.90
2018-05-23T18:27:05.072Z,71.20
2018-05-23T18:29:33.410Z,72.50
2018-05-23T18:32:00.930Z,72.40
2018-05-23T18:34:28.508Z,73.20
2018-05-23T18:36:56.037Z,73.70
2018-05-23T18:39:23.595Z,73.80
2018-05-23T18:41:51.165Z,74.30
2018-05-23T18:44:18.769Z,74.40
2018-05-23T18:46:47.094Z,75.10
2018-05-23T18:49:14.656Z,75.00
2018-05-23T18:51:42.164Z,75.60
2018-05-23T18:54:09.730Z,75.80
2018-05-23T18:56:37.254Z,76.40
2018-05-23T18:59:05.499Z,77.10
2018-05-23T19:01:33.082Z,77.30
2018-05-23T19:04:00.685Z,78.40
2018-05-23T19:06:28.296Z,78.20
2018-05-23T19:08:55.919Z,78.20
2018-05-23T19:11:23.552Z,78.50
2018-05-23T19:13:51.192Z,79.40
2018-05-23T19:16:20.869Z,79.30
2018-05-23T19:18:48.436Z,79.40
2018-05-23T19:21:16.877Z,80.50
2018-05-23T19:23:44.998Z,80.30
2018-05-23T19:26:12.600Z,80.10
2018-05-23T19:28:40.136Z,80.70
2018-05-23T19:31:07.698Z,80.70
2018-05-23T19:33:35.223Z,80.50
2018-05-23T19:36:03.542Z,81.60
2018-05-23T19:38:31.053Z,81.50
2018-05-23T19:40:59.379Z,81.90
2018-05-23T19:43:26.895Z,81.90
2018-05-23T19:45:55.271Z,82.30
2018-05-23T19:48:22.830Z,82.20
2018-05-23T19:50:50.380Z,81.80
2018-05-23T19:53:17.891Z,81.50
2018-05-23T19:55:45.431Z,81.20
2018-05-23T19:58:12.941Z,81.50
2018-05-23T20:00:40.500Z,81.90
2018-05-23T20:03:08.031Z,82.40
2018-05-23T20:05:35.592Z,82.80
2018-05-23T20:08:03.223Z,82.80
2018-05-23T20:10:30.726Z,83.20
2018-05-23T20:12:58.244Z,83.50
2018-05-23T20:15:25.815Z,84.20
2018-05-23T20:17:53.326Z,84.50
2018-05-23T20:20:20.832Z,84.10
2018-05-23T20:22:48.388Z,84.50
2018-05-23T20:25:15.924Z,84.50
2018-05-23T20:27:44.235Z,85.10
2018-05-23T20:30:11.756Z,85.00
2018-05-23T20:32:39.299Z,85.10
2018-05-23T20:35:06.827Z,85.30
2018-05-23T20:37:34.436Z,85.40
2018-05-23T20:40:02.732Z,84.50
2018-05-23T20:42:30.281Z,84.50
2018-05-23T20:44:58.562Z,85.10
2018-05-23T20:47:26.124Z,84.90
2018-05-23T20:49:54.412Z,84.60
2018-05-23T20:52:21.960Z,84.50
2018-05-23T20:54:49.472Z,84.60
2018-05-23T20:57:17.019Z,84.60
2018-05-23T20:59:44.537Z,84.90
2018-05-23T21:02:12.085Z,84.70
2018-05-23T21:04:40.380Z,84.40
2018-05-23T21:07:07.936Z,84.40
2018-05-23T21:09:35.464Z,84.80
2018-05-23T21:12:03.082Z,85.90
2018-05-23T21:14:30.592Z,85.40
2018-05-23T21:16:58.116Z,85.60
2018-05-23T21:19:25.681Z,85.70
2018-05-23T21:21:53.220Z,86.00
2018-05-23T21:24:20.760Z,86.80
2018-05-23T21:26:48.272Z,86.80
2018-05-23T21:29:15.824Z,87.50
2018-05-23T21:31:43.334Z,87.70
2018-05-23T21:34:10.892Z,87.00
2018-05-23T21:36:38.430Z,86.60
2018-05-23T21:39:06.752Z,86.90
2018-05-23T21:41:34.267Z,86.90
2018-05-23T21:44:01.833Z,87.30
2018-05-23T21:46:29.353Z,87.50
2018-05-23T21:48:56.903Z,87.20
2018-05-23T21:51:24.423Z,87.10
2018-05-23T21:53:51.980Z,87.40
2018-05-23T21:56:19.503Z,87.00
2018-05-23T21:58:47.012Z,87.10
2018-05-23T22:01:14.550Z,87.60
2018-05-23T22:03:42.819Z,88.10
2018-05-23T22:06:11.131Z,88.10
2018-05-23T22:08:38.664Z,88.10
2018-05-23T22:11:06.995Z,88.40
2018-05-23T22:13:34.520Z,88.30
2018-05-23T22:16:02.071Z,88.60
2018-05-23T22:18:29.595Z,88.80
2018-05-23T22:20:57.144Z,89.00
2018-05-23T22:23:24.659Z,89.30
2018-05-23T22:25:52.215Z,89.40
2018-05-23T22:28:19.735Z,89.70
2018-05-23T22:30:47.284Z,89.90
2018-05-23T22:33:14.781Z,90.10
2018-05-23T22:35:43.096Z,90.20
2018-05-23T22:38:10.614Z,90.10
2018-05-23T22:40:38.160Z,90.20
2018-05-23T22:43:06.444Z,90.10
2018-05-23T22:45:34.765Z,90.10
2018-05-23T22:48:02.276Z,90.10
2018-05-23T22:50:30.566Z,90.20
2018-05-23T22:52:58.111Z,90.20
2018-05-23T22:55:26.384Z,90.10
2018-05-23T22:57:54.695Z,90.00
2018-05-23T23:00:22.207Z,90.00
2018-05-23T23:02:49.773Z,90.00
2018-05-23T23:05:17.292Z,90.10
2018-05-23T23:07:44.844Z,90.20
2018-05-23T23:10:12.364Z,90.30
2018-05-23T23:12:40.668Z,90.30
2018-05-23T23:15:08.178Z,90.20
2018-05-23T23:17:35.728Z,90.20
2018-05-23T23:20:03.236Z,90.20
2018-05-23T23:22:38.529Z,90.30
2018-05-23T23:25:06.035Z,90.30
2018-05-23T23:27:33.573Z,90.40
2018-05-23T23:30:01.110Z,90.40
2018-05-23T23:32:28.675Z,90.40
2018-05-23T23:34:56.192Z,90.40
2018-05-23T23:37:23.792Z,90.40
2018-05-23T23:39:51.301Z,90.40
2018-05-23T23:42:18.824Z,90.80
2018-05-23T23:44:47.142Z,90.70
2018-05-23T23:47:14.668Z,90.60
2018-05-23T23:49:42.988Z,90.80
2018-05-23T23:52:10.497Z,90.70
2018-05-23T23:54:38.084Z,90.80
2018-05-23T23:57:05.592Z,90.70
2018-05-23T23:59:33.154Z,90.70
